LFRK/CFR METAR and TAF weather

Enter ICAO airport designator
Station Type Date Time Source
LFRK METAR 2021/07/29 01:00 UTC NOAA

LFRK 290100Z AUTO 24008KT CAVOK 14/12 Q1014


Station Type Date Time Source
LFRK Decoded METAR 2021/07/29 01:00 UTC NOAA

Caen, France (LFRK) 49-11N 000-27W 67M
Jul 28, 2021 - 09:00 PM EDT / 2021.07.29 0100 UTC
Wind: from the WSW (240 degrees) at 9 MPH (8 KT):0
Visibility: greater than 7 mile(s):0
Temperature: 57 F (14 C)
Dew Point: 53 F (12 C)
Relative Humidity: 87%
Pressure (altimeter): 29.94 in. Hg (1014 hPa)
ob: LFRK 290100Z AUTO 24008KT CAVOK 14/12 Q1014
cycle: 1

Station Type Date Time Source
LFRK TAF 2020/06/02 06:21 UTC NOAA

TAF LFRK 020500Z 0206/0306 33004KT CAVOK

Example: see airport list